sensor_id;sensor_type;location;lat;lon;timestamp;P1;durP1;ratioP1;P2;durP2;ratioP2
7511;SDS011;9999;48.780;9.146;2022-07-31T00:02:05;1.10;;;1.00;;
7511;SDS011;9999;48.780;9.146;2022-07-31T00:04:32;1.60;;;1.30;;
7511;SDS011;9999;48.780;9.146;2022-07-31T00:06:59;1.05;;;0.98;;
7511;SDS011;9999;48.780;9.146;2022-07-31T00:09:25;1.83;;;1.38;;
7511;SDS011;9999;48.780;9.146;2022-07-31T00:11:53;1.63;;;1.50;;
7511;SDS011;9999;48.780;9.146;2022-07-31T00:14:20;1.08;;;1.08;;
7511;SDS011;9999;48.780;9.146;2022-07-31T00:16:47;2.22;;;1.55;;
7511;SDS011;9999;48.780;9.146;2022-07-31T00:19:15;1.90;;;1.48;;
7511;SDS011;9999;48.780;9.146;2022-07-31T00:21:42;1.52;;;1.42;;
7511;SDS011;9999;48.780;9.146;2022-07-31T00:24:09;1.98;;;1.88;;
7511;SDS011;9999;48.780;9.146;2022-07-31T00:26:36;3.05;;;1.58;;
7511;SDS011;9999;48.780;9.146;2022-07-31T00:29:03;1.00;;;1.00;;
7511;SDS011;9999;48.780;9.146;2022-07-31T00:31:29;1.40;;;1.30;;
7511;SDS011;9999;48.780;9.146;2022-07-31T00:33:56;2.85;;;1.50;;
7511;SDS011;9999;48.780;9.146;2022-07-31T00:36:24;1.52;;;1.40;;
7511;SDS011;9999;48.780;9.146;2022-07-31T00:38:51;3.28;;;1.95;;
7511;SDS011;9999;48.780;9.146;2022-07-31T00:41:17;2.08;;;1.85;;
7511;SDS011;9999;48.780;9.146;2022-07-31T00:43:44;1.83;;;1.70;;
7511;SDS011;9999;48.780;9.146;2022-07-31T00:46:11;3.08;;;1.90;;
7511;SDS011;9999;48.780;9.146;2022-07-31T00:48:38;2.63;;;2.10;;
7511;SDS011;9999;48.780;9.146;2022-07-31T00:51:04;2.38;;;1.98;;
7511;SDS011;9999;48.780;9.146;2022-07-31T00:53:33;4.40;;;2.78;;
7511;SDS011;9999;48.780;9.146;2022-07-31T00:55:59;2.20;;;1.98;;
7511;SDS011;9999;48.780;9.146;2022-07-31T00:58:26;2.17;;;1.95;;
7511;SDS011;9999;48.780;9.146;2022-07-31T01:00:53;2.13;;;1.90;;
7511;SDS011;9999;48.780;9.146;2022-07-31T01:03:20;2.50;;;2.30;;
7511;SDS011;9999;48.780;9.146;2022-07-31T01:05:47;2.25;;;2.05;;
7511;SDS011;9999;48.780;9.146;2022-07-31T01:08:14;3.58;;;2.05;;
7511;SDS011;9999;48.780;9.146;2022-07-31T01:10:48;2.85;;;2.30;;
7511;SDS011;9999;48.780;9.146;2022-07-31T01:13:21;2.50;;;2.22;;
7511;SDS011;9999;48.780;9.146;2022-07-31T01:15:56;2.38;;;2.17;;
7511;SDS011;9999;48.780;9.146;2022-07-31T01:18:25;4.07;;;2.75;;
7511;SDS011;9999;48.780;9.146;2022-07-31T01:20:57;4.28;;;2.17;;
7511;SDS011;9999;48.780;9.146;2022-07-31T01:23:31;4.38;;;2.17;;
7511;SDS011;9999;48.780;9.146;2022-07-31T01:26:33;2.33;;;2.13;;
7511;SDS011;9999;48.780;9.146;2022-07-31T01:29:11;3.15;;;2.08;;
7511;SDS011;9999;48.780;9.146;2022-07-31T01:31:45;2.70;;;2.50;;
7511;SDS011;9999;48.780;9.146;2022-07-31T01:34:19;4.35;;;2.38;;
7511;SDS011;9999;48.780;9.146;2022-07-31T01:36:55;2.53;;;2.05;;
7511;SDS011;9999;48.780;9.146;2022-07-31T01:39:25;2.65;;;1.92;;
7511;SDS011;9999;48.780;9.146;2022-07-31T01:41:56;3.92;;;2.00;;
7511;SDS011;9999;48.780;9.146;2022-07-31T01:44:28;2.38;;;2.17;;
7511;SDS011;9999;48.780;9.146;2022-07-31T01:47:00;2.63;;;2.42;;
7511;SDS011;9999;48.780;9.146;2022-07-31T01:49:29;2.50;;;1.85;;
7511;SDS011;9999;48.780;9.146;2022-07-31T01:51:57;2.67;;;2.42;;
7511;SDS011;9999;48.780;9.146;2022-07-31T01:54:25;4.78;;;2.40;;
7511;SDS011;9999;48.780;9.146;2022-07-31T01:56:54;3.75;;;2.20;;
7511;SDS011;9999;48.780;9.146;2022-07-31T01:59:23;2.42;;;2.22;;
7511;SDS011;9999;48.780;9.146;2022-07-31T02:02:17;3.08;;;2.05;;
7511;SDS011;9999;48.780;9.146;2022-07-31T02:04:46;2.08;;;1.92;;
7511;SDS011;9999;48.780;9.146;2022-07-31T02:07:14;2.50;;;2.30;;
7511;SDS011;9999;48.780;9.146;2022-07-31T02:09:43;3.08;;;2.55;;
7511;SDS011;9999;48.780;9.146;2022-07-31T02:12:11;3.33;;;2.33;;
7511;SDS011;9999;48.780;9.146;2022-07-31T02:14:39;3.67;;;2.30;;
7511;SDS011;9999;48.780;9.146;2022-07-31T02:17:09;2.60;;;1.92;;
7511;SDS011;9999;48.780;9.146;2022-07-31T02:19:58;3.42;;;2.03;;
7511;SDS011;9999;48.780;9.146;2022-07-31T02:22:26;2.67;;;2.33;;
7511;SDS011;9999;48.780;9.146;2022-07-31T02:24:54;3.85;;;2.88;;
7511;SDS011;9999;48.780;9.146;2022-07-31T02:27:21;2.33;;;2.13;;
7511;SDS011;9999;48.780;9.146;2022-07-31T02:29:50;2.75;;;2.50;;
7511;SDS011;9999;48.780;9.146;2022-07-31T02:32:18;3.60;;;2.20;;
7511;SDS011;9999;48.780;9.146;2022-07-31T02:34:47;2.72;;;1.90;;
7511;SDS011;9999;48.780;9.146;2022-07-31T02:37:17;2.50;;;2.30;;
7511;SDS011;9999;48.780;9.146;2022-07-31T02:39:45;2.42;;;2.22;;
7511;SDS011;9999;48.780;9.146;2022-07-31T02:42:14;3.42;;;2.10;;
7511;SDS011;9999;48.780;9.146;2022-07-31T02:44:42;2.20;;;2.00;;
7511;SDS011;9999;48.780;9.146;2022-07-31T02:47:10;2.55;;;2.35;;
7511;SDS011;9999;48.780;9.146;2022-07-31T02:49:39;2.00;;;1.90;;
7511;SDS011;9999;48.780;9.146;2022-07-31T02:52:07;2.05;;;1.88;;
7511;SDS011;9999;48.780;9.146;2022-07-31T02:54:36;3.60;;;2.05;;
7511;SDS011;9999;48.780;9.146;2022-07-31T02:57:04;3.53;;;2.35;;
7511;SDS011;9999;48.780;9.146;2022-07-31T02:59:35;2.05;;;1.83;;
7511;SDS011;9999;48.780;9.146;2022-07-31T03:02:02;1.60;;;1.50;;
7511;SDS011;9999;48.780;9.146;2022-07-31T03:04:31;1.45;;;1.35;;
7511;SDS011;9999;48.780;9.146;2022-07-31T03:06:58;2.50;;;2.22;;
7511;SDS011;9999;48.780;9.146;2022-07-31T03:09:25;2.42;;;2.00;;
7511;SDS011;9999;48.780;9.146;2022-07-31T03:12:10;1.58;;;1.48;;
7511;SDS011;9999;48.780;9.146;2022-07-31T03:14:37;2.53;;;1.98;;
7511;SDS011;9999;48.780;9.146;2022-07-31T03:17:04;2.03;;;1.70;;
7511;SDS011;9999;48.780;9.146;2022-07-31T03:19:33;1.95;;;1.50;;
7511;SDS011;9999;48.780;9.146;2022-07-31T03:22:00;1.45;;;1.38;;
7511;SDS011;9999;48.780;9.146;2022-07-31T03:24:27;5.25;;;2.08;;
7511;SDS011;9999;48.780;9.146;2022-07-31T03:26:54;1.45;;;1.35;;
7511;SDS011;9999;48.780;9.146;2022-07-31T03:29:22;2.30;;;1.55;;
7511;SDS011;9999;48.780;9.146;2022-07-31T03:31:50;1.95;;;1.73;;
7511;SDS011;9999;48.780;9.146;2022-07-31T03:34:17;1.80;;;1.60;;
7511;SDS011;9999;48.780;9.146;2022-07-31T03:36:43;1.83;;;1.73;;
7511;SDS011;9999;48.780;9.146;2022-07-31T03:39:11;1.58;;;1.48;;
7511;SDS011;9999;48.780;9.146;2022-07-31T03:41:43;2.10;;;1.90;;
7511;SDS011;9999;48.780;9.146;2022-07-31T03:44:11;1.70;;;1.60;;
7511;SDS011;9999;48.780;9.146;2022-07-31T03:46:39;1.80;;;1.70;;
7511;SDS011;9999;48.780;9.146;2022-07-31T03:49:07;1.30;;;1.23;;
7511;SDS011;9999;48.780;9.146;2022-07-31T03:51:34;1.80;;;1.70;;
7511;SDS011;9999;48.780;9.146;2022-07-31T03:54:01;3.70;;;1.55;;
7511;SDS011;9999;48.780;9.146;2022-07-31T03:56:45;2.15;;;2.00;;
7511;SDS011;9999;48.780;9.146;2022-07-31T03:59:14;1.63;;;1.52;;
7511;SDS011;9999;48.780;9.146;2022-07-31T04:01:43;1.40;;;1.33;;
7511;SDS011;9999;48.780;9.146;2022-07-31T04:04:16;1.58;;;1.48;;
7511;SDS011;9999;48.780;9.146;2022-07-31T04:07:00;1.70;;;1.60;;
7511;SDS011;9999;48.780;9.146;2022-07-31T04:09:27;1.77;;;1.67;;
7511;SDS011;9999;48.780;9.146;2022-07-31T04:11:54;3.13;;;2.60;;
7511;SDS011;9999;48.780;9.146;2022-07-31T04:14:21;1.42;;;1.42;;
7511;SDS011;9999;48.780;9.146;2022-07-31T04:16:49;1.88;;;1.60;;
7511;SDS011;9999;48.780;9.146;2022-07-31T04:19:16;1.92;;;1.67;;
7511;SDS011;9999;48.780;9.146;2022-07-31T04:21:43;1.67;;;1.58;;
7511;SDS011;9999;48.780;9.146;2022-07-31T04:24:10;9.27;;;1.77;;
7511;SDS011;9999;48.780;9.146;2022-07-31T04:27:03;2.47;;;1.80;;
7511;SDS011;9999;48.780;9.146;2022-07-31T04:29:37;2.58;;;1.92;;
7511;SDS011;9999;48.780;9.146;2022-07-31T04:32:05;1.75;;;1.65;;
7511;SDS011;9999;48.780;9.146;2022-07-31T04:34:52;1.98;;;1.58;;
7511;SDS011;9999;48.780;9.146;2022-07-31T04:37:19;1.75;;;1.65;;
7511;SDS011;9999;48.780;9.146;2022-07-31T04:39:46;6.15;;;2.40;;
7511;SDS011;9999;48.780;9.146;2022-07-31T04:42:13;2.55;;;1.92;;
7511;SDS011;9999;48.780;9.146;2022-07-31T04:44:40;1.50;;;1.42;;
7511;SDS011;9999;48.780;9.146;2022-07-31T04:47:08;1.92;;;1.83;;
7511;SDS011;9999;48.780;9.146;2022-07-31T04:49:40;4.50;;;2.03;;
7511;SDS011;9999;48.780;9.146;2022-07-31T04:52:09;1.88;;;1.75;;
7511;SDS011;9999;48.780;9.146;2022-07-31T04:54:37;2.00;;;1.90;;
7511;SDS011;9999;48.780;9.146;2022-07-31T04:57:06;1.90;;;1.77;;
7511;SDS011;9999;48.780;9.146;2022-07-31T04:59:33;2.42;;;2.00;;
7511;SDS011;9999;48.780;9.146;2022-07-31T05:02:00;2.45;;;2.20;;
7511;SDS011;9999;48.780;9.146;2022-07-31T05:04:28;2.33;;;2.13;;
7511;SDS011;9999;48.780;9.146;2022-07-31T05:06:55;1.80;;;1.70;;
7511;SDS011;9999;48.780;9.146;2022-07-31T05:09:22;6.20;;;2.67;;
7511;SDS011;9999;48.780;9.146;2022-07-31T05:11:52;2.47;;;2.28;;
7511;SDS011;9999;48.780;9.146;2022-07-31T05:14:20;3.28;;;2.35;;
7511;SDS011;9999;48.780;9.146;2022-07-31T05:16:47;2.13;;;1.92;;
7511;SDS011;9999;48.780;9.146;2022-07-31T05:19:15;2.78;;;2.53;;
7511;SDS011;9999;48.780;9.146;2022-07-31T05:22:03;2.40;;;2.20;;
7511;SDS011;9999;48.780;9.146;2022-07-31T05:24:41;2.28;;;2.17;;
7511;SDS011;9999;48.780;9.146;2022-07-31T05:27:10;2.30;;;2.10;;
7511;SDS011;9999;48.780;9.146;2022-07-31T05:29:39;3.65;;;2.75;;
7511;SDS011;9999;48.780;9.146;2022-07-31T05:32:06;3.03;;;2.42;;
7511;SDS011;9999;48.780;9.146;2022-07-31T05:34:34;3.58;;;1.88;;
7511;SDS011;9999;48.780;9.146;2022-07-31T05:37:03;2.92;;;2.08;;
7511;SDS011;9999;48.780;9.146;2022-07-31T05:39:31;1.90;;;1.80;;
7511;SDS011;9999;48.780;9.146;2022-07-31T05:42:18;2.65;;;1.83;;
7511;SDS011;9999;48.780;9.146;2022-07-31T05:45:01;1.77;;;1.67;;
7511;SDS011;9999;48.780;9.146;2022-07-31T05:47:28;2.40;;;2.00;;
7511;SDS011;9999;48.780;9.146;2022-07-31T05:49:55;3.50;;;2.00;;
7511;SDS011;9999;48.780;9.146;2022-07-31T05:52:23;2.90;;;2.10;;
7511;SDS011;9999;48.780;9.146;2022-07-31T05:55:06;2.00;;;1.90;;
7511;SDS011;9999;48.780;9.146;2022-07-31T05:57:52;3.15;;;2.20;;
7511;SDS011;9999;48.780;9.146;2022-07-31T06:00:19;4.47;;;2.03;;
7511;SDS011;9999;48.780;9.146;2022-07-31T06:02:46;2.40;;;2.15;;
7511;SDS011;9999;48.780;9.146;2022-07-31T06:05:32;6.25;;;2.05;;
7511;SDS011;9999;48.780;9.146;2022-07-31T06:08:00;3.47;;;2.30;;
7511;SDS011;9999;48.780;9.146;2022-07-31T06:10:32;3.30;;;2.20;;
7511;SDS011;9999;48.780;9.146;2022-07-31T06:13:02;3.88;;;2.03;;
7511;SDS011;9999;48.780;9.146;2022-07-31T06:15:29;2.33;;;1.80;;
7511;SDS011;9999;48.780;9.146;2022-07-31T06:17:56;1.70;;;1.60;;
7511;SDS011;9999;48.780;9.146;2022-07-31T06:20:27;2.33;;;1.95;;
7511;SDS011;9999;48.780;9.146;2022-07-31T06:22:54;1.77;;;1.67;;
7511;SDS011;9999;48.780;9.146;2022-07-31T06:25:24;2.30;;;2.10;;
7511;SDS011;9999;48.780;9.146;2022-07-31T06:27:52;5.00;;;2.42;;
7511;SDS011;9999;48.780;9.146;2022-07-31T06:30:19;1.70;;;1.60;;
7511;SDS011;9999;48.780;9.146;2022-07-31T06:32:46;1.77;;;1.67;;
7511;SDS011;9999;48.780;9.146;2022-07-31T06:35:14;2.13;;;2.03;;
7511;SDS011;9999;48.780;9.146;2022-07-31T06:38:03;3.65;;;2.47;;
7511;SDS011;9999;48.780;9.146;2022-07-31T06:40:43;2.10;;;1.85;;
7511;SDS011;9999;48.780;9.146;2022-07-31T06:43:25;2.03;;;1.70;;
7511;SDS011;9999;48.780;9.146;2022-07-31T06:46:12;2.00;;;1.80;;
7511;SDS011;9999;48.780;9.146;2022-07-31T06:48:58;2.00;;;1.90;;
7511;SDS011;9999;48.780;9.146;2022-07-31T06:51:25;1.92;;;1.80;;
7511;SDS011;9999;48.780;9.146;2022-07-31T06:53:52;2.17;;;2.03;;
7511;SDS011;9999;48.780;9.146;2022-07-31T06:56:20;1.95;;;1.70;;
7511;SDS011;9999;48.780;9.146;2022-07-31T06:58:47;1.75;;;1.65;;
7511;SDS011;9999;48.780;9.146;2022-07-31T07:01:14;5.68;;;2.60;;
7511;SDS011;9999;48.780;9.146;2022-07-31T07:03:41;2.05;;;1.95;;
7511;SDS011;9999;48.780;9.146;2022-07-31T07:06:08;1.80;;;1.70;;
7511;SDS011;9999;48.780;9.146;2022-07-31T07:08:35;1.60;;;1.55;;
7511;SDS011;9999;48.780;9.146;2022-07-31T07:11:02;3.58;;;2.15;;
7511;SDS011;9999;48.780;9.146;2022-07-31T07:13:35;1.42;;;1.33;;
7511;SDS011;9999;48.780;9.146;2022-07-31T07:16:02;1.45;;;1.35;;
7511;SDS011;9999;48.780;9.146;2022-07-31T07:18:29;1.70;;;1.60;;
7511;SDS011;9999;48.780;9.146;2022-07-31T07:20:56;2.05;;;1.88;;
7511;SDS011;9999;48.780;9.146;2022-07-31T07:23:24;3.60;;;1.50;;
7511;SDS011;9999;48.780;9.146;2022-07-31T07:26:11;2.00;;;1.88;;
7511;SDS011;9999;48.780;9.146;2022-07-31T07:28:39;3.88;;;1.88;;
7511;SDS011;9999;48.780;9.146;2022-07-31T07:31:07;1.92;;;1.73;;
7511;SDS011;9999;48.780;9.146;2022-07-31T07:33:34;2.97;;;1.77;;
7511;SDS011;9999;48.780;9.146;2022-07-31T07:36:02;4.00;;;1.90;;
7511;SDS011;9999;48.780;9.146;2022-07-31T07:38:29;1.73;;;1.50;;
7511;SDS011;9999;48.780;9.146;2022-07-31T07:40:56;1.88;;;1.52;;
7511;SDS011;9999;48.780;9.146;2022-07-31T07:43:23;1.33;;;1.23;;
7511;SDS011;9999;48.780;9.146;2022-07-31T07:45:51;1.63;;;1.52;;
7511;SDS011;9999;48.780;9.146;2022-07-31T07:48:18;1.80;;;1.70;;
7511;SDS011;9999;48.780;9.146;2022-07-31T07:51:05;1.63;;;1.52;;
7511;SDS011;9999;48.780;9.146;2022-07-31T07:53:51;1.75;;;1.65;;
7511;SDS011;9999;48.780;9.146;2022-07-31T07:56:38;2.35;;;1.60;;
7511;SDS011;9999;48.780;9.146;2022-07-31T07:59:31;2.03;;;1.75;;
7511;SDS011;9999;48.780;9.146;2022-07-31T08:02:18;2.30;;;2.10;;
7511;SDS011;9999;48.780;9.146;2022-07-31T08:04:46;2.45;;;2.25;;
7511;SDS011;9999;48.780;9.146;2022-07-31T08:07:12;1.70;;;1.60;;
7511;SDS011;9999;48.780;9.146;2022-07-31T08:09:39;2.33;;;1.90;;
7511;SDS011;9999;48.780;9.146;2022-07-31T08:12:09;3.45;;;2.47;;
7511;SDS011;9999;48.780;9.146;2022-07-31T08:14:54;2.20;;;1.98;;
7511;SDS011;9999;48.780;9.146;2022-07-31T08:17:41;1.88;;;1.55;;
7511;SDS011;9999;48.780;9.146;2022-07-31T08:20:08;1.85;;;1.75;;
7511;SDS011;9999;48.780;9.146;2022-07-31T08:22:35;1.77;;;1.67;;
7511;SDS011;9999;48.780;9.146;2022-07-31T08:25:02;5.25;;;2.00;;
7511;SDS011;9999;48.780;9.146;2022-07-31T08:27:30;3.20;;;1.65;;
7511;SDS011;9999;48.780;9.146;2022-07-31T08:29:58;1.60;;;1.50;;
7511;SDS011;9999;48.780;9.146;2022-07-31T08:32:28;2.80;;;1.75;;
7511;SDS011;9999;48.780;9.146;2022-07-31T08:35:06;1.98;;;1.85;;
7511;SDS011;9999;48.780;9.146;2022-07-31T08:37:33;1.90;;;1.67;;
7511;SDS011;9999;48.780;9.146;2022-07-31T08:40:00;2.25;;;2.10;;
7511;SDS011;9999;48.780;9.146;2022-07-31T08:42:28;1.95;;;1.85;;
7511;SDS011;9999;48.780;9.146;2022-07-31T08:44:56;1.70;;;1.60;;
7511;SDS011;9999;48.780;9.146;2022-07-31T08:47:27;2.03;;;1.63;;
7511;SDS011;9999;48.780;9.146;2022-07-31T08:50:00;2.03;;;1.92;;
7511;SDS011;9999;48.780;9.146;2022-07-31T08:52:30;1.70;;;1.60;;
7511;SDS011;9999;48.780;9.146;2022-07-31T08:55:15;2.10;;;1.90;;
7511;SDS011;9999;48.780;9.146;2022-07-31T08:57:45;1.75;;;1.65;;
7511;SDS011;9999;48.780;9.146;2022-07-31T09:00:13;6.03;;;1.92;;
7511;SDS011;9999;48.780;9.146;2022-07-31T09:02:42;1.73;;;1.63;;
7511;SDS011;9999;48.780;9.146;2022-07-31T09:05:35;1.25;;;1.20;;
7511;SDS011;9999;48.780;9.146;2022-07-31T09:08:04;1.38;;;1.27;;
7511;SDS011;9999;48.780;9.146;2022-07-31T09:10:32;1.23;;;1.23;;
7511;SDS011;9999;48.780;9.146;2022-07-31T09:12:59;1.23;;;1.13;;
7511;SDS011;9999;48.780;9.146;2022-07-31T09:15:36;1.60;;;1.50;;
7511;SDS011;9999;48.780;9.146;2022-07-31T09:18:13;1.40;;;1.30;;
7511;SDS011;9999;48.780;9.146;2022-07-31T09:20:45;2.58;;;1.50;;
7511;SDS011;9999;48.780;9.146;2022-07-31T09:23:21;2.33;;;1.48;;
7511;SDS011;9999;48.780;9.146;2022-07-31T09:25:52;2.13;;;1.55;;
7511;SDS011;9999;48.780;9.146;2022-07-31T09:28:20;1.45;;;1.45;;
7511;SDS011;9999;48.780;9.146;2022-07-31T09:30:57;1.27;;;1.10;;
7511;SDS011;9999;48.780;9.146;2022-07-31T09:33:43;1.40;;;1.30;;
7511;SDS011;9999;48.780;9.146;2022-07-31T09:36:29;1.50;;;1.40;;
7511;SDS011;9999;48.780;9.146;2022-07-31T09:39:12;0.88;;;0.88;;
7511;SDS011;9999;48.780;9.146;2022-07-31T09:42:11;1.40;;;1.30;;
7511;SDS011;9999;48.780;9.146;2022-07-31T09:44:48;1.60;;;1.50;;
7511;SDS011;9999;48.780;9.146;2022-07-31T09:47:19;1.50;;;1.40;;
7511;SDS011;9999;48.780;9.146;2022-07-31T09:49:51;1.00;;;1.00;;
7511;SDS011;9999;48.780;9.146;2022-07-31T09:52:20;1.17;;;1.13;;
7511;SDS011;9999;48.780;9.146;2022-07-31T09:54:58;1.60;;;1.13;;
7511;SDS011;9999;48.780;9.146;2022-07-31T09:57:27;1.33;;;1.25;;
7511;SDS011;9999;48.780;9.146;2022-07-31T09:59:57;1.35;;;1.25;;
7511;SDS011;9999;48.780;9.146;2022-07-31T10:02:24;0.90;;;0.88;;
7511;SDS011;9999;48.780;9.146;2022-07-31T10:04:52;1.00;;;1.00;;
7511;SDS011;9999;48.780;9.146;2022-07-31T10:07:21;1.20;;;1.10;;
7511;SDS011;9999;48.780;9.146;2022-07-31T10:09:54;1.63;;;0.80;;
7511;SDS011;9999;48.780;9.146;2022-07-31T10:12:41;1.33;;;1.23;;
7511;SDS011;9999;48.780;9.146;2022-07-31T10:15:13;1.08;;;1.08;;
7511;SDS011;9999;48.780;9.146;2022-07-31T10:17:46;4.05;;;1.88;;
7511;SDS011;9999;48.780;9.146;2022-07-31T10:20:34;1.60;;;0.93;;
7511;SDS011;9999;48.780;9.146;2022-07-31T10:23:22;1.00;;;0.90;;
7511;SDS011;9999;48.780;9.146;2022-07-31T10:25:53;0.85;;;0.85;;
7511;SDS011;9999;48.780;9.146;2022-07-31T10:28:23;1.77;;;1.15;;
7511;SDS011;9999;48.780;9.146;2022-07-31T10:30:51;3.50;;;1.05;;
7511;SDS011;9999;48.780;9.146;2022-07-31T10:33:18;1.67;;;0.90;;
7511;SDS011;9999;48.780;9.146;2022-07-31T10:36:05;2.42;;;0.88;;
7511;SDS011;9999;48.780;9.146;2022-07-31T10:38:57;1.77;;;1.60;;
7511;SDS011;9999;48.780;9.146;2022-07-31T10:41:50;1.25;;;0.90;;
7511;SDS011;9999;48.780;9.146;2022-07-31T10:44:26;0.85;;;0.85;;
7511;SDS011;9999;48.780;9.146;2022-07-31T10:47:23;0.95;;;0.95;;
7511;SDS011;9999;48.780;9.146;2022-07-31T10:50:19;1.25;;;1.15;;
7511;SDS011;9999;48.780;9.146;2022-07-31T10:53:12;3.53;;;1.25;;
7511;SDS011;9999;48.780;9.146;2022-07-31T10:56:16;1.08;;;1.08;;
7511;SDS011;9999;48.780;9.146;2022-07-31T10:58:59;1.77;;;0.90;;
7511;SDS011;9999;48.780;9.146;2022-07-31T11:02:05;1.02;;;0.98;;
7511;SDS011;9999;48.780;9.146;2022-07-31T11:04:48;1.00;;;1.00;;
7511;SDS011;9999;48.780;9.146;2022-07-31T11:07:29;0.90;;;0.90;;
7511;SDS011;9999;48.780;9.146;2022-07-31T11:10:08;0.90;;;0.90;;
7511;SDS011;9999;48.780;9.146;2022-07-31T11:12:58;1.27;;;1.15;;
7511;SDS011;9999;48.780;9.146;2022-07-31T11:15:46;0.95;;;0.95;;
7511;SDS011;9999;48.780;9.146;2022-07-31T11:18:36;1.05;;;0.95;;
7511;SDS011;9999;48.780;9.146;2022-07-31T11:21:04;1.10;;;0.93;;
7511;SDS011;9999;48.780;9.146;2022-07-31T11:23:33;1.30;;;1.20;;
7511;SDS011;9999;48.780;9.146;2022-07-31T11:26:01;0.90;;;0.82;;
7511;SDS011;9999;48.780;9.146;2022-07-31T11:28:30;1.85;;;1.75;;
7511;SDS011;9999;48.780;9.146;2022-07-31T11:30:59;1.52;;;1.42;;
7511;SDS011;9999;48.780;9.146;2022-07-31T11:33:28;1.13;;;1.10;;
7511;SDS011;9999;48.780;9.146;2022-07-31T11:35:57;3.15;;;1.27;;
7511;SDS011;9999;48.780;9.146;2022-07-31T11:38:31;1.15;;;1.10;;
7511;SDS011;9999;48.780;9.146;2022-07-31T11:40:58;1.23;;;1.00;;
7511;SDS011;9999;48.780;9.146;2022-07-31T11:43:24;1.17;;;1.15;;
7511;SDS011;9999;48.780;9.146;2022-07-31T11:45:52;0.98;;;0.90;;
7511;SDS011;9999;48.780;9.146;2022-07-31T11:48:21;0.77;;;0.77;;
7511;SDS011;9999;48.780;9.146;2022-07-31T11:50:50;2.50;;;1.10;;
7511;SDS011;9999;48.780;9.146;2022-07-31T11:53:17;1.50;;;1.20;;
7511;SDS011;9999;48.780;9.146;2022-07-31T11:55:47;1.60;;;1.38;;
7511;SDS011;9999;48.780;9.146;2022-07-31T11:58:15;1.50;;;1.40;;
7511;SDS011;9999;48.780;9.146;2022-07-31T12:00:46;1.95;;;1.20;;
7511;SDS011;9999;48.780;9.146;2022-07-31T12:03:14;1.48;;;1.38;;
7511;SDS011;9999;48.780;9.146;2022-07-31T12:05:43;1.10;;;0.85;;
7511;SDS011;9999;48.780;9.146;2022-07-31T12:08:11;0.90;;;0.90;;
7511;SDS011;9999;48.780;9.146;2022-07-31T12:10:39;2.17;;;1.10;;
7511;SDS011;9999;48.780;9.146;2022-07-31T12:13:10;1.40;;;1.30;;
7511;SDS011;9999;48.780;9.146;2022-07-31T12:15:39;1.48;;;1.13;;
7511;SDS011;9999;48.780;9.146;2022-07-31T12:18:06;0.98;;;0.95;;
7511;SDS011;9999;48.780;9.146;2022-07-31T12:20:33;1.13;;;1.02;;
7511;SDS011;9999;48.780;9.146;2022-07-31T12:23:02;1.08;;;1.08;;
7511;SDS011;9999;48.780;9.146;2022-07-31T12:25:40;1.95;;;1.00;;
7511;SDS011;9999;48.780;9.146;2022-07-31T12:28:11;1.20;;;1.10;;
7511;SDS011;9999;48.780;9.146;2022-07-31T12:30:38;1.23;;;1.13;;
7511;SDS011;9999;48.780;9.146;2022-07-31T12:33:05;0.93;;;0.93;;
7511;SDS011;9999;48.780;9.146;2022-07-31T12:35:34;1.08;;;1.02;;
7511;SDS011;9999;48.780;9.146;2022-07-31T12:38:02;3.13;;;1.42;;
7511;SDS011;9999;48.780;9.146;2022-07-31T12:40:29;0.93;;;0.93;;
7511;SDS011;9999;48.780;9.146;2022-07-31T12:42:56;0.98;;;0.90;;
7511;SDS011;9999;48.780;9.146;2022-07-31T12:45:28;3.08;;;0.98;;
7511;SDS011;9999;48.780;9.146;2022-07-31T12:47:56;1.60;;;1.50;;
7511;SDS011;9999;48.780;9.146;2022-07-31T12:50:23;0.90;;;0.90;;
7511;SDS011;9999;48.780;9.146;2022-07-31T12:52:51;1.67;;;1.13;;
7511;SDS011;9999;48.780;9.146;2022-07-31T12:55:20;0.88;;;0.82;;
7511;SDS011;9999;48.780;9.146;2022-07-31T12:57:47;0.80;;;0.80;;
7511;SDS011;9999;48.780;9.146;2022-07-31T13:00:14;0.75;;;0.75;;
7511;SDS011;9999;48.780;9.146;2022-07-31T13:02:42;1.50;;;1.40;;
7511;SDS011;9999;48.780;9.146;2022-07-31T13:05:09;1.20;;;1.10;;
7511;SDS011;9999;48.780;9.146;2022-07-31T13:07:36;0.80;;;0.80;;
7511;SDS011;9999;48.780;9.146;2022-07-31T13:10:03;1.15;;;1.00;;
7511;SDS011;9999;48.780;9.146;2022-07-31T13:12:32;1.10;;;1.00;;
7511;SDS011;9999;48.780;9.146;2022-07-31T13:14:58;2.17;;;1.02;;
7511;SDS011;9999;48.780;9.146;2022-07-31T13:17:26;1.17;;;1.08;;
7511;SDS011;9999;48.780;9.146;2022-07-31T13:19:53;1.08;;;0.98;;
7511;SDS011;9999;48.780;9.146;2022-07-31T13:22:20;1.75;;;1.00;;
7511;SDS011;9999;48.780;9.146;2022-07-31T13:24:47;1.27;;;0.90;;
7511;SDS011;9999;48.780;9.146;2022-07-31T13:27:13;1.02;;;1.02;;
7511;SDS011;9999;48.780;9.146;2022-07-31T13:29:43;0.80;;;0.80;;
7511;SDS011;9999;48.780;9.146;2022-07-31T13:32:10;1.02;;;1.02;;
7511;SDS011;9999;48.780;9.146;2022-07-31T13:34:37;0.95;;;0.93;;
7511;SDS011;9999;48.780;9.146;2022-07-31T13:37:03;1.33;;;1.23;;
7511;SDS011;9999;48.780;9.146;2022-07-31T13:39:30;4.40;;;1.27;;
7511;SDS011;9999;48.780;9.146;2022-07-31T13:41:57;0.70;;;0.70;;
7511;SDS011;9999;48.780;9.146;2022-07-31T13:44:24;0.80;;;0.80;;
7511;SDS011;9999;48.780;9.146;2022-07-31T13:46:52;0.98;;;0.98;;
7511;SDS011;9999;48.780;9.146;2022-07-31T13:49:19;0.80;;;0.80;;
7511;SDS011;9999;48.780;9.146;2022-07-31T13:51:45;1.25;;;1.10;;
7511;SDS011;9999;48.780;9.146;2022-07-31T13:54:12;1.23;;;1.13;;
7511;SDS011;9999;48.780;9.146;2022-07-31T13:56:40;1.27;;;1.17;;
7511;SDS011;9999;48.780;9.146;2022-07-31T13:59:07;0.70;;;0.70;;
7511;SDS011;9999;48.780;9.146;2022-07-31T14:01:34;0.70;;;0.65;;
7511;SDS011;9999;48.780;9.146;2022-07-31T14:04:02;0.95;;;0.95;;
7511;SDS011;9999;48.780;9.146;2022-07-31T14:06:29;3.35;;;1.77;;
7511;SDS011;9999;48.780;9.146;2022-07-31T14:08:55;1.02;;;0.98;;
7511;SDS011;9999;48.780;9.146;2022-07-31T14:11:22;3.03;;;1.10;;
7511;SDS011;9999;48.780;9.146;2022-07-31T14:13:49;1.23;;;1.08;;
7511;SDS011;9999;48.780;9.146;2022-07-31T14:16:16;0.77;;;0.77;;
7511;SDS011;9999;48.780;9.146;2022-07-31T14:18:42;0.93;;;0.93;;
7511;SDS011;9999;48.780;9.146;2022-07-31T14:21:11;6.10;;;1.88;;
7511;SDS011;9999;48.780;9.146;2022-07-31T14:23:37;0.98;;;0.68;;
7511;SDS011;9999;48.780;9.146;2022-07-31T14:26:04;1.00;;;1.00;;
7511;SDS011;9999;48.780;9.146;2022-07-31T14:28:31;0.80;;;0.80;;
7511;SDS011;9999;48.780;9.146;2022-07-31T14:30:59;4.60;;;1.35;;
7511;SDS011;9999;48.780;9.146;2022-07-31T14:33:26;1.08;;;0.98;;
7511;SDS011;9999;48.780;9.146;2022-07-31T14:35:55;1.95;;;1.00;;
7511;SDS011;9999;48.780;9.146;2022-07-31T14:38:23;2.15;;;1.27;;
7511;SDS011;9999;48.780;9.146;2022-07-31T14:40:50;0.80;;;0.80;;
7511;SDS011;9999;48.780;9.146;2022-07-31T14:43:18;0.90;;;0.90;;
7511;SDS011;9999;48.780;9.146;2022-07-31T14:45:44;0.90;;;0.90;;
7511;SDS011;9999;48.780;9.146;2022-07-31T14:48:11;1.23;;;0.88;;
7511;SDS011;9999;48.780;9.146;2022-07-31T14:50:38;0.82;;;0.82;;
7511;SDS011;9999;48.780;9.146;2022-07-31T14:53:07;0.80;;;0.80;;
7511;SDS011;9999;48.780;9.146;2022-07-31T14:55:35;0.82;;;0.82;;
7511;SDS011;9999;48.780;9.146;2022-07-31T14:58:02;0.80;;;0.80;;
7511;SDS011;9999;48.780;9.146;2022-07-31T15:00:29;1.08;;;0.70;;
7511;SDS011;9999;48.780;9.146;2022-07-31T15:02:56;1.05;;;1.05;;
7511;SDS011;9999;48.780;9.146;2022-07-31T15:05:23;0.90;;;0.90;;
7511;SDS011;9999;48.780;9.146;2022-07-31T15:07:50;0.85;;;0.77;;
7511;SDS011;9999;48.780;9.146;2022-07-31T15:10:16;0.70;;;0.70;;
7511;SDS011;9999;48.780;9.146;2022-07-31T15:12:45;1.27;;;1.10;;
7511;SDS011;9999;48.780;9.146;2022-07-31T15:15:11;1.13;;;0.98;;
7511;SDS011;9999;48.780;9.146;2022-07-31T15:17:38;0.98;;;0.98;;
7511;SDS011;9999;48.780;9.146;2022-07-31T15:20:05;1.25;;;1.13;;
7511;SDS011;9999;48.780;9.146;2022-07-31T15:22:32;1.73;;;1.30;;
7511;SDS011;9999;48.780;9.146;2022-07-31T15:24:59;1.63;;;1.15;;
7511;SDS011;9999;48.780;9.146;2022-07-31T15:27:26;0.85;;;0.85;;
7511;SDS011;9999;48.780;9.146;2022-07-31T15:29:54;0.93;;;0.93;;
7511;SDS011;9999;48.780;9.146;2022-07-31T15:32:21;0.95;;;0.95;;
7511;SDS011;9999;48.780;9.146;2022-07-31T15:34:49;0.82;;;0.82;;
7511;SDS011;9999;48.780;9.146;2022-07-31T15:37:16;2.10;;;1.17;;
7511;SDS011;9999;48.780;9.146;2022-07-31T15:39:42;1.17;;;1.08;;